Terminal Aerodrome Forecast
Issued by NWS Charleston, WV

Current Version | Previous Version | Graphics & Text | Print | Product List | Glossary On
Versions: 1 2 3 4 5 6 7 8 9 10 11 12 13 14 15 16 17 18 19 20 21 22 23 24 25
000
FTUS41 KRLX 302100 AAA
TAFBKW
TAF AMD
KBKW 302140Z 3022/0118 35010KT P6SM -SHRA SCT015 OVC040
     FM010000 31010G16KT 3SM SHRA BR VCTS OVC040CB
     FM010300 31009KT 3SM -SHRA BR SCT015 OVC030
     FM010800 30008KT 3SM BR OVC015
     FM011600 33006KT 4SM BR BKN011=

USA.gov is the U.S. government's official web portal to all federal, state and local government web resources and services.